Time;durP1;ratioP1;P1;durP2;ratioP2;P2;SDS_P1;SDS_P2;PMS_P1;PMS_P2;Temp;Humidity;BMP_temperature;BMP_pressure;BME280_temperature;BME280_humidity;BME280_pressure;Samples;Min_cycle;Max_cycle;Signal;HPM_P1;HPM_P2
2023/04/18 00:02:21;;;;;;;12.57;11.27;;;6.70;99.90;;;;;;6208213;23;20162;-79
2023/04/18 00:04:49;;;;;;;13.33;11.93;;;6.80;99.90;;;;;;6210105;23;20208;-79
2023/04/18 00:07:16;;;;;;;12.53;10.90;;;6.70;99.90;;;;;;6209610;23;20221;-79
2023/04/18 00:09:42;;;;;;;13.00;11.70;;;6.70;99.90;;;;;;6208054;23;20154;-78
2023/04/18 00:12:09;;;;;;;13.57;11.70;;;6.70;99.90;;;;;;6209884;23;20169;-79
2023/04/18 00:14:36;;;;;;;13.10;11.43;;;6.70;99.90;;;;;;6208376;23;20869;-78
2023/04/18 00:17:08;;;;;;;14.83;12.07;;;6.60;99.90;;;;;;6207927;23;20189;-79
2023/04/18 00:19:34;;;;;;;12.73;10.97;;;6.70;99.90;;;;;;6207704;23;20617;-78
2023/04/18 00:21:59;;;;;;;15.40;11.33;;;6.70;99.90;;;;;;6207752;23;20184;-78
2023/04/18 00:24:25;;;;;;;13.17;11.77;;;6.70;99.90;;;;;;6209439;23;20827;-78
2023/04/18 00:26:51;;;;;;;13.00;11.60;;;6.70;99.90;;;;;;6209224;23;20219;-79
2023/04/18 00:29:16;;;;;;;13.73;11.63;;;6.60;99.90;;;;;;6207744;23;20229;-79
2023/04/18 00:31:42;;;;;;;14.57;12.17;;;6.60;99.90;;;;;;6216968;23;20190;-79
2023/04/18 00:34:07;;;;;;;14.20;11.53;;;6.60;99.90;;;;;;6240320;23;20152;-79
2023/04/18 00:36:33;;;;;;;13.87;12.33;;;6.60;99.90;;;;;;6212711;23;20162;-78
2023/04/18 00:38:58;;;;;;;15.23;12.13;;;6.60;99.90;;;;;;6212523;23;20177;-78
2023/04/18 00:41:26;;;;;;;15.23;12.40;;;6.60;99.90;;;;;;6212782;23;20177;-79
2023/04/18 00:43:53;;;;;;;13.70;12.10;;;6.60;99.90;;;;;;6239573;23;20165;-79
2023/04/18 00:46:18;;;;;;;13.27;11.87;;;6.60;99.90;;;;;;6212638;23;20264;-78
2023/04/18 00:48:45;;;;;;;13.23;11.63;;;6.60;99.90;;;;;;6239449;23;20500;-79
2023/04/18 00:51:10;;;;;;;13.40;12.00;;;6.60;99.90;;;;;;6212607;23;20700;-79
2023/04/18 00:53:36;;;;;;;14.37;11.77;;;6.60;99.90;;;;;;6212927;23;20162;-78
2023/04/18 00:56:03;;;;;;;15.53;12.43;;;6.60;99.90;;;;;;6213436;23;20162;-79
2023/04/18 00:58:30;;;;;;;13.90;11.97;;;6.60;1.00;;;;;;6239538;23;20162;-79
2023/04/18 01:00:55;;;;;;;12.80;11.50;;;6.60;1.00;;;;;;6211939;23;20231;-79
2023/04/18 01:03:21;;;;;;;13.30;11.47;;;6.50;1.00;;;;;;6213009;23;20162;-79
2023/04/18 01:05:47;;;;;;;13.50;11.13;;;6.50;1.00;;;;;;6239384;23;20150;-79
2023/04/18 01:08:13;;;;;;;12.47;10.80;;;6.50;1.00;;;;;;6212422;23;20174;-79
2023/04/18 01:10:39;;;;;;;13.87;11.60;;;6.50;1.00;;;;;;6212958;23;20256;-80
2023/04/18 01:13:16;;;;;;;14.20;10.77;;;6.50;1.00;;;;;;6239759;23;20173;-79
2023/04/18 01:15:43;;;;;;;11.33;10.10;;;6.50;1.00;;;;;;6213044;23;20173;-79
2023/04/18 01:18:10;;;;;;;10.83;9.73;;;6.50;1.00;;;;;;6212224;23;20241;-78
2023/04/18 01:20:42;;;;;;;10.73;9.60;;;6.50;1.00;;;;;;6239092;23;20174;-80
2023/04/18 01:23:11;;;;;;;11.87;10.13;;;6.40;1.00;;;;;;6239359;23;20130;-78
2023/04/18 01:25:37;;;;;;;12.20;10.53;;;6.40;1.00;;;;;;6239143;23;20158;-79
2023/04/18 01:28:03;;;;;;;10.17;9.07;;;6.50;1.00;;;;;;6212694;23;20189;-79
2023/04/18 01:30:29;;;;;;;10.83;9.73;;;6.50;1.00;;;;;;6239200;23;20173;-79
2023/04/18 01:32:55;;;;;;;11.93;10.67;;;6.50;1.00;;;;;;6206587;23;20177;-79
2023/04/18 01:35:20;;;;;;;11.63;10.50;;;6.50;1.00;;;;;;6206701;23;20178;-79
2023/04/18 01:37:46;;;;;;;11.97;10.77;;;6.40;1.00;;;;;;6207064;23;20166;-78
2023/04/18 01:40:12;;;;;;;13.30;11.50;;;6.40;1.00;;;;;;6207465;23;20176;-79
2023/04/18 01:42:37;;;;;;;13.10;11.53;;;6.40;1.00;;;;;;6207053;23;20189;-80
2023/04/18 01:45:04;;;;;;;12.83;11.53;;;6.40;1.00;;;;;;6207406;23;20553;-78
2023/04/18 01:47:29;;;;;;;14.90;12.13;;;6.40;1.00;;;;;;6207020;23;20717;-79
2023/04/18 01:49:55;;;;;;;13.40;11.97;;;6.40;1.00;;;;;;6208332;23;20189;-79
2023/04/18 01:52:21;;;;;;;13.90;11.70;;;6.40;1.00;;;;;;6208826;23;20147;-78
2023/04/18 01:54:46;;;;;;;13.37;11.23;;;6.40;1.00;;;;;;6209134;23;20158;-78
2023/04/18 01:57:12;;;;;;;13.60;12.20;;;6.40;1.00;;;;;;6209650;23;20173;-80
2023/04/18 01:59:37;;;;;;;14.30;12.80;;;6.40;1.00;;;;;;6208676;23;20240;-79
2023/04/18 02:02:03;;;;;;;15.43;13.63;;;6.40;43.90;;;;;;6207721;23;20186;-78
2023/04/18 02:04:28;;;;;;;15.10;13.43;;;6.40;15.30;;;;;;6212590;23;20163;-78
2023/04/18 02:06:54;;;;;;;15.33;13.67;;;6.40;1.00;;;;;;6207405;23;20309;-78
2023/04/18 02:09:19;;;;;;;17.83;14.63;;;6.50;1.00;;;;;;6209036;23;20981;-78
2023/04/18 02:11:45;;;;;;;16.17;14.43;;;6.50;1.00;;;;;;6207589;23;20178;-78
2023/04/18 02:14:11;;;;;;;16.57;14.83;;;6.50;1.00;;;;;;6208761;23;20160;-78
2023/04/18 02:16:37;;;;;;;18.03;14.83;;;6.40;61.80;;;;;;6206809;23;20162;-78
2023/04/18 02:19:03;;;;;;;19.70;16.60;;;6.40;45.10;;;;;;6205752;23;20158;-78
2023/04/18 02:21:29;;;;;;;17.30;15.37;;;6.40;99.90;;;;;;6208213;23;20230;-78
2023/04/18 02:23:55;;;;;;;18.17;15.80;;;6.30;99.90;;;;;;6207747;23;20941;-79
2023/04/18 02:26:21;;;;;;;17.77;14.87;;;6.30;99.90;;;;;;6206311;23;20225;-78
2023/04/18 02:28:47;;;;;;;20.70;16.23;;;6.30;99.90;;;;;;6205616;23;20480;-78
2023/04/18 02:31:13;;;;;;;17.77;15.27;;;6.30;99.90;;;;;;6207310;23;20273;-78
2023/04/18 02:33:44;;;;;;;17.30;15.50;;;6.30;99.90;;;;;;6207589;23;20198;-78
2023/04/18 02:36:11;;;;;;;19.10;15.37;;;6.30;99.90;;;;;;6205828;23;20501;-78
2023/04/18 02:38:37;;;;;;;19.53;15.57;;;6.40;99.90;;;;;;6207091;23;20233;-78
2023/04/18 02:41:02;;;;;;;22.60;16.80;;;6.40;99.90;;;;;;6207665;23;20201;-78
2023/04/18 02:43:29;;;;;;;19.53;16.20;;;6.30;99.90;;;;;;6207394;23;20158;-78
2023/04/18 02:45:54;;;;;;;18.40;15.60;;;6.30;99.90;;;;;;6207124;23;20212;-78
2023/04/18 02:48:21;;;;;;;17.40;15.47;;;6.30;99.90;;;;;;6205430;23;20162;-79
2023/04/18 02:50:47;;;;;;;19.60;16.23;;;6.30;99.90;;;;;;6206922;23;20170;-79
2023/04/18 02:53:12;;;;;;;17.20;15.40;;;6.30;99.90;;;;;;6209222;23;20701;-79
2023/04/18 02:55:38;;;;;;;19.63;16.40;;;6.30;99.90;;;;;;6208937;23;20176;-78
2023/04/18 02:58:03;;;;;;;19.03;15.87;;;6.30;99.90;;;;;;6209312;23;20577;-78
2023/04/18 03:00:29;;;;;;;17.30;15.43;;;6.30;99.90;;;;;;6207249;23;20533;-78
2023/04/18 03:02:55;;;;;;;18.97;14.80;;;6.40;32.90;;;;;;6209790;23;20657;-78
2023/04/18 03:05:20;;;;;;;18.97;15.73;;;6.30;65.10;;;;;;6206238;23;20158;-78
2023/04/18 03:07:46;;;;;;;18.50;15.93;;;6.40;18.50;;;;;;6206102;23;20189;-78
2023/04/18 03:10:12;;;;;;;18.50;16.23;;;6.40;3.50;;;;;;6208438;23;20155;-79
2023/04/18 03:12:37;;;;;;;18.33;15.87;;;6.40;55.90;;;;;;6207013;23;20158;-79
2023/04/18 03:15:03;;;;;;;17.83;15.27;;;6.40;1.00;;;;;;6207797;23;20154;-78
2023/04/18 03:17:29;;;;;;;18.77;14.90;;;6.40;1.00;;;;;;6208542;23;20186;-77
2023/04/18 03:19:54;;;;;;;18.73;16.07;;;6.40;1.00;;;;;;6206574;23;20245;-79
2023/04/18 03:22:20;;;;;;;18.93;16.10;;;6.40;1.00;;;;;;6208887;23;20154;-78
2023/04/18 03:24:46;;;;;;;17.37;15.00;;;6.40;1.00;;;;;;6208885;23;20154;-78
2023/04/18 03:27:12;;;;;;;18.67;16.07;;;6.40;1.00;;;;;;6208618;23;20174;-78
2023/04/18 03:29:37;;;;;;;17.70;15.57;;;6.40;1.00;;;;;;6206442;23;20186;-78
2023/04/18 03:32:03;;;;;;;20.07;15.93;;;6.40;1.00;;;;;;6206914;23;20197;-78
2023/04/18 03:34:29;;;;;;;18.37;16.07;;;6.30;1.00;;;;;;6208576;23;20169;-79
2023/04/18 03:36:55;;;;;;;18.23;16.23;;;6.40;1.00;;;;;;6208952;23;20158;-79
2023/04/18 03:39:20;;;;;;;17.70;15.53;;;6.40;1.00;;;;;;6208296;23;20156;-78
2023/04/18 03:41:46;;;;;;;17.27;15.40;;;6.40;1.00;;;;;;6207163;23;20186;-78
2023/04/18 03:44:11;;;;;;;18.43;15.93;;;6.40;1.00;;;;;;6207071;23;20194;-78
2023/04/18 03:46:37;;;;;;;16.63;14.80;;;6.40;1.00;;;;;;6206912;23;20623;-78
2023/04/18 03:49:03;;;;;;;17.77;15.57;;;6.40;1.00;;;;;;6206260;23;20158;-78
2023/04/18 03:51:33;;;;;;;18.43;15.50;;;6.50;1.00;;;;;;6208626;23;20737;-78
2023/04/18 03:53:59;;;;;;;19.03;15.47;;;6.40;1.00;;;;;;6208861;23;21036;-81
2023/04/18 03:56:25;;;;;;;17.10;14.47;;;6.40;1.00;;;;;;6208278;23;20151;-78
2023/04/18 03:58:50;;;;;;;17.63;15.13;;;6.40;1.00;;;;;;6208775;23;20591;-78
2023/04/18 04:01:16;;;;;;;18.37;15.43;;;6.40;1.00;;;;;;6208823;23;20225;-79
2023/04/18 04:03:41;;;;;;;16.97;15.00;;;6.30;1.00;;;;;;6209665;23;20162;-78
2023/04/18 04:06:07;;;;;;;18.53;14.97;;;6.40;1.00;;;;;;6212243;23;20185;-78
2023/04/18 04:08:33;;;;;;;16.77;14.97;;;6.40;1.00;;;;;;6208214;23;20151;-78
2023/04/18 04:10:58;;;;;;;18.20;15.77;;;6.40;1.00;;;;;;6208340;23;20201;-78
2023/04/18 04:13:24;;;;;;;16.43;14.30;;;6.40;1.00;;;;;;6207210;23;20154;-78
2023/04/18 04:15:50;;;;;;;16.93;14.70;;;6.40;1.00;;;;;;6210744;23;20204;-83
2023/04/18 04:18:16;;;;;;;16.23;14.53;;;6.50;1.00;;;;;;6207618;23;20249;-78
2023/04/18 04:20:42;;;;;;;17.07;14.87;;;6.50;1.00;;;;;;6208349;23;20198;-78
2023/04/18 04:23:08;;;;;;;15.73;14.03;;;6.50;1.00;;;;;;6206695;23;20162;-79
2023/04/18 04:25:34;;;;;;;16.27;14.60;;;6.50;1.00;;;;;;6209205;23;20226;-79
2023/04/18 04:28:00;;;;;;;17.10;15.03;;;6.60;1.00;;;;;;6207130;23;20186;-78
2023/04/18 04:30:27;;;;;;;16.23;14.43;;;6.60;1.00;;;;;;6208497;23;20587;-78
2023/04/18 04:32:53;;;;;;;15.83;14.13;;;6.60;1.00;;;;;;6209060;23;20237;-79
2023/04/18 04:35:19;;;;;;;15.93;14.23;;;6.60;1.00;;;;;;6209474;23;20159;-78
2023/04/18 04:37:45;;;;;;;15.23;13.63;;;6.70;1.00;;;;;;6210713;23;20162;-78
2023/04/18 04:40:11;;;;;;;15.47;13.87;;;6.60;99.90;;;;;;6210271;23;20229;-78
2023/04/18 04:42:39;;;;;;;15.17;13.53;;;6.60;1.00;;;;;;6211092;23;20159;-79
2023/04/18 04:45:07;;;;;;;14.90;13.37;;;6.60;1.00;;;;;;6208920;23;20193;-78
2023/04/18 04:47:32;;;;;;;15.10;13.50;;;6.60;99.90;;;;;;6208791;23;20205;-79
2023/04/18 04:49:58;;;;;;;14.40;12.97;;;6.60;99.90;;;;;;6208307;23;20862;-78
2023/04/18 04:52:23;;;;;;;15.47;13.87;;;6.80;99.90;;;;;;6208983;23;20658;-78
2023/04/18 04:54:50;;;;;;;15.13;13.40;;;6.80;99.90;;;;;;6208223;23;20187;-78
2023/04/18 04:57:16;;;;;;;15.03;13.17;;;6.80;99.90;;;;;;6210315;23;20230;-78
2023/04/18 04:59:41;;;;;;;14.17;12.70;;;6.70;99.90;;;;;;6208858;23;20526;-79
2023/04/18 05:02:07;;;;;;;14.73;13.23;;;6.80;99.90;;;;;;6209595;23;20182;-78
2023/04/18 05:04:32;;;;;;;14.17;12.77;;;6.80;99.90;;;;;;6209439;23;20189;-78
2023/04/18 05:06:58;;;;;;;14.10;12.60;;;6.70;99.90;;;;;;6209000;23;20509;-79
2023/04/18 05:09:25;;;;;;;14.60;13.10;;;6.70;99.90;;;;;;6206504;23;20158;-78
2023/04/18 05:11:50;;;;;;;14.37;12.87;;;6.80;99.90;;;;;;6206634;23;20265;-79
2023/04/18 05:14:16;;;;;;;14.13;12.60;;;6.80;99.90;;;;;;6207054;23;20236;-78
2023/04/18 05:16:42;;;;;;;13.10;11.73;;;6.80;99.90;;;;;;6208466;23;20158;-78
2023/04/18 05:19:07;;;;;;;14.07;12.67;;;6.80;99.90;;;;;;6208013;23;20657;-78
2023/04/18 05:21:33;;;;;;;14.27;12.83;;;6.80;99.90;;;;;;6206789;23;20174;-78
2023/04/18 05:23:59;;;;;;;13.73;11.83;;;6.80;99.90;;;;;;6206799;23;20198;-78
2023/04/18 05:26:24;;;;;;;13.47;12.07;;;6.70;99.90;;;;;;6206432;23;20265;-78
2023/04/18 05:28:50;;;;;;;12.20;10.90;;;6.80;99.90;;;;;;6206451;23;20608;-78
2023/04/18 05:31:15;;;;;;;12.73;11.33;;;6.80;99.90;;;;;;6207967;23;20174;-78
2023/04/18 05:33:41;;;;;;;14.53;12.07;;;6.80;99.90;;;;;;6208259;23;20170;-78
2023/04/18 05:36:07;;;;;;;13.63;12.33;;;6.80;99.90;;;;;;6206776;23;20184;-78
2023/04/18 05:38:33;;;;;;;13.40;12.00;;;6.80;99.90;;;;;;6207943;23;20154;-78
2023/04/18 05:40:59;;;;;;;16.60;12.73;;;6.90;99.90;;;;;;6208056;23;20186;-78
2023/04/18 05:43:25;;;;;;;15.20;13.33;;;6.90;99.90;;;;;;6207701;23;20165;-78
2023/04/18 05:45:53;;;;;;;13.00;11.63;;;6.90;99.90;;;;;;6208042;23;20497;-78
2023/04/18 05:48:21;;;;;;;12.50;11.20;;;6.90;99.90;;;;;;6206178;23;20237;-78
2023/04/18 05:50:46;;;;;;;12.30;11.03;;;6.90;99.90;;;;;;6207762;23;20225;-78
2023/04/18 05:53:12;;;;;;;12.27;10.97;;;7.00;99.90;;;;;;6206364;23;20167;-79
2023/04/18 05:55:39;;;;;;;12.50;11.27;;;6.90;99.90;;;;;;6206336;23;20182;-78
2023/04/18 05:58:05;;;;;;;12.30;10.73;;;6.90;99.90;;;;;;6206758;23;20166;-78
2023/04/18 06:00:31;;;;;;;12.60;11.33;;;6.90;99.90;;;;;;6209458;23;20249;-78
2023/04/18 06:02:56;;;;;;;12.30;11.00;;;6.90;99.90;;;;;;6207513;23;20614;-79
2023/04/18 06:05:22;;;;;;;12.87;11.10;;;7.00;99.90;;;;;;6207436;23;20162;-83
2023/04/18 06:07:48;;;;;;;13.03;11.63;;;7.00;99.90;;;;;;6206906;23;20567;-85
2023/04/18 06:10:14;;;;;;;12.63;11.30;;;7.00;99.90;;;;;;6207226;23;20161;-84
2023/04/18 06:12:40;;;;;;;12.33;11.03;;;7.00;99.90;;;;;;6208328;23;20204;-80
2023/04/18 06:15:06;;;;;;;12.87;10.60;;;7.10;99.90;;;;;;6212275;23;20588;-82
2023/04/18 06:17:33;;;;;;;11.60;10.27;;;7.20;99.90;;;;;;6211343;23;20154;-83
2023/04/18 06:19:58;;;;;;;11.43;10.37;;;7.30;99.90;;;;;;6210361;23;21011;-81
2023/04/18 06:22:24;;;;;;;11.47;10.27;;;7.50;99.90;;;;;;6208392;23;20165;-80
2023/04/18 06:24:50;;;;;;;11.33;10.23;;;7.60;88.40;;;;;;6208615;23;20498;-81
2023/04/18 06:27:15;;;;;;;11.60;10.10;;;7.70;77.20;;;;;;6209853;23;20645;-83
2023/04/18 06:29:42;;;;;;;11.30;10.17;;;7.70;54.50;;;;;;6210097;23;20157;-82
2023/04/18 06:32:07;;;;;;;10.80;9.70;;;7.90;53.50;;;;;;6209304;23;20264;-82
2023/04/18 06:34:33;;;;;;;10.50;9.50;;;7.90;34.80;;;;;;6213033;23;20162;-82
2023/04/18 06:36:59;;;;;;;11.17;10.03;;;8.00;25.90;;;;;;6214309;23;20162;-81
2023/04/18 06:39:24;;;;;;;12.03;10.63;;;8.10;25.40;;;;;;6215348;23;20177;-81
2023/04/18 06:41:50;;;;;;;12.13;10.50;;;8.10;7.20;;;;;;6214778;23;20645;-83
2023/04/18 06:44:15;;;;;;;10.60;9.50;;;8.10;1.10;;;;;;6210485;23;20163;-85
2023/04/18 06:46:41;;;;;;;10.37;9.27;;;8.10;1.00;;;;;;6213574;23;20264;-84
2023/04/18 06:49:07;;;;;;;10.73;9.63;;;8.10;1.00;;;;;;6212521;23;20154;-83
2023/04/18 06:51:33;;;;;;;10.77;9.70;;;8.30;1.00;;;;;;6209065;23;20177;-83
2023/04/18 06:53:58;;;;;;;11.07;9.70;;;8.40;8.00;;;;;;6212165;23;20618;-82
2023/04/18 06:56:24;;;;;;;10.80;9.77;;;8.40;1.00;;;;;;6208864;23;20154;-86
2023/04/18 06:58:51;;;;;;;9.53;8.57;;;8.50;1.00;;;;;;6206535;23;20543;-82
2023/04/18 07:01:17;;;;;;;9.20;8.30;;;8.40;1.00;;;;;;6210177;23;20174;-84
2023/04/18 07:03:43;;;;;;;9.87;8.77;;;8.50;1.00;;;;;;6210374;23;20610;-83
2023/04/18 07:06:09;;;;;;;10.30;9.30;;;8.60;1.00;;;;;;6208604;23;20177;-82
2023/04/18 07:08:35;;;;;;;10.07;8.87;;;8.70;1.00;;;;;;6209532;23;20158;-86
2023/04/18 07:11:01;;;;;;;10.17;9.27;;;8.80;1.00;;;;;;6210123;23;20181;-81
2023/04/18 07:13:27;;;;;;;11.17;9.63;;;8.60;1.00;;;;;;6207732;23;20138;-81
2023/04/18 07:15:52;;;;;;;10.87;9.77;;;8.70;1.00;;;;;;6208563;23;20590;-81
2023/04/18 07:18:18;;;;;;;10.47;9.37;;;8.70;1.00;;;;;;6207412;23;20158;-82
2023/04/18 07:20:44;;;;;;;10.43;9.40;;;8.80;1.00;;;;;;6210290;23;20184;-83
2023/04/18 07:23:09;;;;;;;10.30;9.40;;;9.00;1.00;;;;;;6208614;23;20162;-83
2023/04/18 07:25:36;;;;;;;9.63;8.63;;;9.00;1.00;;;;;;6209437;23;20185;-83
2023/04/18 07:28:01;;;;;;;9.50;8.50;;;9.10;1.00;;;;;;6209276;23;20186;-83
2023/04/18 07:30:27;;;;;;;9.77;8.77;;;9.10;1.00;;;;;;6206719;23;20174;-83
2023/04/18 07:32:52;;;;;;;9.90;8.90;;;9.00;1.00;;;;;;6207759;23;20217;-84
2023/04/18 07:35:18;;;;;;;9.60;8.70;;;9.00;1.00;;;;;;6207882;23;20165;-83
2023/04/18 07:37:43;;;;;;;10.10;9.10;;;9.20;1.00;;;;;;6208662;23;20154;-85
2023/04/18 07:40:10;;;;;;;10.47;8.60;;;9.20;1.00;;;;;;6212666;23;20166;-82
2023/04/18 07:42:36;;;;;;;8.73;7.93;;;9.30;1.00;;;;;;6206980;23;20189;-82
2023/04/18 07:45:01;;;;;;;9.97;9.07;;;9.40;1.00;;;;;;6208262;23;20154;-82
2023/04/18 07:47:27;;;;;;;10.03;9.03;;;9.40;1.00;;;;;;6210138;23;20210;-83
2023/04/18 07:49:53;;;;;;;9.83;8.83;;;9.30;1.00;;;;;;6209340;23;20576;-83
2023/04/18 07:52:18;;;;;;;9.60;8.60;;;9.20;1.00;;;;;;6207275;23;20393;-82
2023/04/18 07:54:44;;;;;;;10.13;9.07;;;9.20;1.00;;;;;;6209439;23;20154;-85
2023/04/18 07:57:10;;;;;;;10.07;9.07;;;9.20;1.00;;;;;;6210219;23;20159;-83
2023/04/18 07:59:35;;;;;;;9.53;8.53;;;9.30;1.00;;;;;;6207130;23;20190;-82
2023/04/18 08:02:01;;;;;;;10.20;9.20;;;9.50;1.00;;;;;;6208598;23;20188;-82
2023/04/18 08:04:27;;;;;;;9.63;8.73;;;9.70;1.00;;;;;;6213802;23;20158;-85
2023/04/18 08:06:53;;;;;;;9.80;8.80;;;9.90;1.00;;;;;;6212516;23;20333;-83
2023/04/18 08:09:20;;;;;;;9.40;8.50;;;9.80;1.00;;;;;;6217201;23;20161;-83
2023/04/18 08:11:46;;;;;;;9.23;8.37;;;10.00;1.00;;;;;;6217129;23;20177;-85
2023/04/18 08:14:12;;;;;;;9.70;8.80;;;10.00;1.00;;;;;;6214162;23;20162;-84
2023/04/18 08:16:37;;;;;;;9.43;8.43;;;10.20;1.00;;;;;;6213871;23;20189;-84
2023/04/18 08:19:03;;;;;;;8.90;8.10;;;10.50;1.00;;;;;;6213257;23;20543;-83
2023/04/18 08:21:30;;;;;;;9.05;8.18;;;10.70;1.00;;;;;;6213531;23;20269;-84
2023/04/18 08:23:55;;;;;;;9.18;8.38;;;10.90;1.00;;;;;;6215615;23;20158;-83
2023/04/18 08:26:21;;;;;;;8.48;7.70;;;11.10;1.00;;;;;;6216603;23;20656;-82
2023/04/18 08:28:46;;;;;;;9.02;8.23;;;11.00;1.00;;;;;;6214786;23;20651;-85
2023/04/18 08:31:13;;;;;;;9.18;8.27;;;11.00;1.00;;;;;;6214292;23;20182;-83
2023/04/18 08:33:39;;;;;;;8.93;8.02;;;11.00;1.00;;;;;;6214268;23;20516;-85
2023/04/18 08:36:05;;;;;;;9.13;8.23;;;10.90;1.00;;;;;;6213355;23;20531;-82
2023/04/18 08:38:31;;;;;;;9.02;8.13;;;10.90;1.00;;;;;;6210948;23;20219;-84
2023/04/18 08:40:56;;;;;;;8.70;7.90;;;10.70;1.00;;;;;;6212619;23;20187;-82
2023/04/18 08:43:24;;;;;;;9.38;7.95;;;10.70;1.00;;;;;;6207146;23;20158;-82
2023/04/18 08:45:49;;;;;;;9.23;8.32;;;11.00;1.00;;;;;;6207016;23;20166;-82
2023/04/18 08:48:16;;;;;;;10.10;9.10;;;11.20;1.00;;;;;;6206613;23;20514;-81
2023/04/18 08:50:43;;;;;;;9.30;8.40;;;11.40;1.00;;;;;;6206618;23;20202;-82
2023/04/18 08:53:10;;;;;;;8.98;7.85;;;11.50;1.00;;;;;;6208647;23;20168;-82
2023/04/18 08:55:36;;;;;;;9.38;8.43;;;11.50;1.00;;;;;;6206879;23;20163;-81
2023/04/18 08:58:05;;;;;;;9.05;8.25;;;11.40;1.00;;;;;;6206939;23;20170;-83
2023/04/18 09:00:31;;;;;;;9.32;8.52;;;11.10;1.00;;;;;;6208027;23;20174;-83
2023/04/18 09:02:57;;;;;;;9.38;8.50;;;11.20;1.00;;;;;;6206657;23;20220;-84
2023/04/18 09:05:25;;;;;;;8.98;8.07;;;11.30;1.00;;;;;;6206788;23;20666;-84
2023/04/18 09:07:52;;;;;;;9.52;8.52;;;11.40;1.00;;;;;;6211757;23;20622;-81
2023/04/18 09:10:27;;;;;;;8.95;8.07;;;11.40;1.00;;;;;;6215790;23;20646;-82
2023/04/18 09:12:55;;;;;;;9.27;8.48;;;11.40;1.00;;;;;;6209552;23;20154;-83
2023/04/18 09:15:22;;;;;;;10.00;9.05;;;11.40;1.00;;;;;;6211479;23;20210;-82
2023/04/18 09:17:51;;;;;;;8.60;7.80;;;11.50;1.00;;;;;;6209377;23;20173;-82
2023/04/18 09:20:34;;;;;;;9.20;8.40;;;11.50;1.00;;;;;;6210956;23;20178;-82
2023/04/18 09:23:02;;;;;;;9.07;8.27;;;11.50;1.00;;;;;;6211615;23;20237;-82
2023/04/18 09:25:33;;;;;;;8.70;7.88;;;11.40;1.00;;;;;;6209995;23;20166;-84
2023/04/18 09:28:00;;;;;;;8.25;7.55;;;11.30;1.00;;;;;;6209180;23;20178;-84
2023/04/18 09:30:32;;;;;;;8.57;7.78;;;11.10;1.00;;;;;;6211251;23;20177;-82
2023/04/18 09:32:59;;;;;;;8.80;8.00;;;11.10;1.00;;;;;;6210978;23;20181;-84
2023/04/18 09:35:25;;;;;;;8.77;7.97;;;11.40;1.00;;;;;;6210257;23;20178;-82
2023/04/18 09:37:51;;;;;;;8.32;7.63;;;11.60;1.00;;;;;;6210108;23;20162;-85
2023/04/18 09:40:18;;;;;;;8.70;7.90;;;11.50;1.00;;;;;;6209764;23;20245;-84
2023/04/18 09:42:45;;;;;;;8.80;8.00;;;11.30;1.00;;;;;;6218418;23;20158;-84
2023/04/18 09:45:11;;;;;;;8.63;7.72;;;11.30;1.00;;;;;;6209063;23;20556;-83
2023/04/18 09:47:38;;;;;;;7.97;7.28;;;11.50;1.00;;;;;;6208320;23;20642;-84
2023/04/18 09:50:05;;;;;;;9.43;8.13;;;11.60;1.00;;;;;;6208323;23;20215;-83
2023/04/18 09:52:36;;;;;;;8.70;7.90;;;11.70;1.00;;;;;;6208096;23;20237;-85
2023/04/18 09:55:07;;;;;;;8.57;7.78;;;11.70;1.00;;;;;;6208119;23;20230;-85
2023/04/18 09:57:35;;;;;;;7.65;6.95;;;11.50;1.00;;;;;;6208127;23;20169;-83
2023/04/18 10:00:07;;;;;;;8.05;7.35;;;11.20;1.00;;;;;;6208574;23;20205;-83
2023/04/18 10:02:43;;;;;;;7.90;7.20;;;11.30;1.00;;;;;;6207271;23;20189;-84
2023/04/18 10:05:10;;;;;;;8.23;7.43;;;11.40;1.00;;;;;;6206479;23;20550;-84
2023/04/18 10:07:36;;;;;;;9.18;8.27;;;11.50;1.00;;;;;;6209227;23;20509;-85
2023/04/18 10:10:02;;;;;;;8.40;7.65;;;11.50;1.00;;;;;;6208697;23;20150;-84
2023/04/18 10:12:27;;;;;;;7.97;7.28;;;11.40;1.00;;;;;;6208711;23;20490;-84
2023/04/18 10:14:54;;;;;;;7.87;7.07;;;11.20;1.00;;;;;;6207730;23;20213;-86
2023/04/18 10:17:20;;;;;;;7.40;6.75;;;11.10;1.00;;;;;;6208776;23;20158;-84
2023/04/18 10:20:01;;;;;;;10.15;7.30;;;10.90;1.00;;;;;;6208041;23;20182;-84
2023/04/18 10:22:27;;;;;;;7.60;6.87;;;10.90;1.00;;;;;;6207120;23;20157;-85
2023/04/18 10:24:52;;;;;;;7.90;7.20;;;11.00;1.00;;;;;;6209166;23;20154;-84
2023/04/18 10:27:53;;;;;;;8.10;7.30;;;10.90;1.00;;;;;;6207765;23;20186;-84
2023/04/18 10:30:18;;;;;;;7.03;6.43;;;10.90;1.00;;;;;;6206540;23;21001;-83
2023/04/18 10:32:47;;;;;;;7.73;7.03;;;10.90;1.00;;;;;;6207075;23;20178;-83
2023/04/18 10:35:12;;;;;;;6.77;6.17;;;10.70;1.00;;;;;;6208530;23;20155;-84
2023/04/18 10:37:51;;;;;;;7.47;6.80;;;10.50;1.00;;;;;;6206097;23;20473;-81
2023/04/18 10:40:34;;;;;;;9.73;6.80;;;10.60;1.00;;;;;;6207143;23;20189;-83
2023/04/18 10:43:00;;;;;;;7.63;6.93;;;10.60;1.00;;;;;;6206144;23;20159;-85
2023/04/18 10:45:29;;;;;;;7.73;6.93;;;10.60;1.00;;;;;;6206947;23;20188;-84
2023/04/18 10:48:21;;;;;;;7.37;6.67;;;10.60;1.00;;;;;;6209255;23;20531;-84
2023/04/18 10:51:13;;;;;;;6.93;6.23;;;10.70;1.00;;;;;;6206484;23;20178;-83
2023/04/18 10:53:58;;;;;;;6.20;5.60;;;10.70;1.00;;;;;;6205607;23;20629;-84
2023/04/18 10:56:27;;;;;;;7.00;6.40;;;10.80;1.00;;;;;;6209145;23;20243;-84
2023/04/18 10:58:53;;;;;;;7.20;6.10;;;10.80;1.00;;;;;;6207587;23;20151;-82
2023/04/18 11:01:23;;;;;;;6.63;6.03;;;10.80;1.00;;;;;;6207802;23;20178;-83
2023/04/18 11:03:50;;;;;;;7.07;6.47;;;10.70;1.00;;;;;;6205825;23;20146;-82
2023/04/18 11:06:15;;;;;;;6.57;5.80;;;10.90;1.00;;;;;;6206274;23;20186;-84
2023/04/18 11:08:41;;;;;;;7.00;6.40;;;10.90;1.00;;;;;;6207495;23;20499;-83
2023/04/18 11:11:09;;;;;;;6.87;6.27;;;10.80;1.00;;;;;;6205604;23;20513;-83
2023/04/18 11:13:35;;;;;;;6.40;5.80;;;10.80;1.00;;;;;;6205754;23;20164;-83
2023/04/18 11:16:02;;;;;;;6.97;6.27;;;10.70;1.00;;;;;;6206088;23;20234;-83
2023/04/18 11:18:39;;;;;;;18.10;7.10;;;10.70;1.00;;;;;;6206891;23;20151;-83
2023/04/18 11:21:05;;;;;;;7.33;6.40;;;10.70;1.00;;;;;;6205337;23;20178;-83
2023/04/18 11:23:31;;;;;;;11.40;6.40;;;10.80;1.00;;;;;;6205610;23;20160;-82
2023/04/18 11:25:57;;;;;;;6.63;5.93;;;10.80;1.00;;;;;;6205474;23;20164;-83
2023/04/18 11:28:25;;;;;;;6.70;6.10;;;10.90;1.00;;;;;;6205316;23;20189;-83
2023/04/18 11:30:51;;;;;;;7.33;6.60;;;11.00;1.00;;;;;;6207116;23;20236;-83
2023/04/18 11:33:16;;;;;;;8.82;6.50;;;11.10;1.00;;;;;;6207115;23;20618;-83
2023/04/18 11:35:44;;;;;;;7.28;6.38;;;11.10;1.00;;;;;;6205478;23;20208;-83
2023/04/18 11:38:14;;;;;;;7.60;6.80;;;11.20;1.00;;;;;;6206352;23;20174;-83
2023/04/18 11:40:49;;;;;;;7.53;6.82;;;11.10;1.00;;;;;;6209562;23;20197;-80
2023/04/18 11:43:20;;;;;;;6.88;6.28;;;11.10;1.00;;;;;;6203646;23;20166;-81
2023/04/18 11:45:57;;;;;;;6.57;5.97;;;11.20;1.00;;;;;;6203777;23;20154;-81
2023/04/18 11:48:23;;;;;;;6.95;6.35;;;11.30;1.00;;;;;;6204058;23;20554;-81
2023/04/18 11:50:49;;;;;;;6.70;5.88;;;11.60;1.00;;;;;;6206452;23;20642;-80
2023/04/18 11:53:30;;;;;;;6.10;5.50;;;11.60;1.00;;;;;;6206932;23;20150;-81
2023/04/18 11:55:55;;;;;;;6.30;5.70;;;12.00;1.00;;;;;;6205149;23;20157;-81
2023/04/18 11:58:32;;;;;;;6.53;5.78;;;12.20;1.00;;;;;;6204467;23;20186;-81
2023/04/18 12:00:58;;;;;;;6.45;5.85;;;12.30;1.00;;;;;;6204671;23;20634;-81
2023/04/18 12:03:24;;;;;;;5.70;5.20;;;12.40;1.00;;;;;;6204423;23;20245;-80
2023/04/18 12:05:58;;;;;;;5.93;5.43;;;12.30;1.00;;;;;;6205173;23;20622;-80
2023/04/18 12:08:25;;;;;;;5.53;5.03;;;12.20;1.00;;;;;;6205666;23;20181;-80
2023/04/18 12:10:53;;;;;;;6.55;5.95;;;12.20;1.00;;;;;;6205798;23;20204;-81
2023/04/18 12:13:27;;;;;;;6.50;5.80;;;12.20;1.00;;;;;;6204629;23;20237;-81
2023/04/18 12:15:53;;;;;;;5.80;5.30;;;12.20;1.00;;;;;;6206140;23;20150;-80
2023/04/18 12:18:19;;;;;;;5.63;5.13;;;12.10;1.00;;;;;;6205131;23;20190;-79
2023/04/18 12:20:49;;;;;;;5.85;5.35;;;12.00;1.00;;;;;;6205426;23;20186;-81
2023/04/18 12:23:32;;;;;;;6.13;5.20;;;12.00;1.00;;;;;;6204786;23;20166;-81
2023/04/18 12:26:06;;;;;;;6.15;5.55;;;12.10;1.00;;;;;;6205411;23;20162;-81
2023/04/18 12:28:33;;;;;;;6.28;5.68;;;12.10;1.00;;;;;;6206941;23;20246;-81
2023/04/18 12:30:59;;;;;;;4.95;4.55;;;12.10;1.00;;;;;;6208153;23;20171;-81
2023/04/18 12:33:25;;;;;;;7.65;5.63;;;12.10;1.00;;;;;;6208059;23;20209;-81
2023/04/18 12:35:52;;;;;;;6.25;5.65;;;12.10;1.00;;;;;;6210498;23;20151;-83
2023/04/18 12:38:22;;;;;;;5.82;5.00;;;12.10;1.00;;;;;;6207797;23;20158;-81
2023/04/18 12:40:48;;;;;;;6.03;5.10;;;12.30;1.00;;;;;;6208523;23;20498;-81
2023/04/18 12:43:14;;;;;;;5.97;5.40;;;12.40;1.00;;;;;;6207597;23;20166;-81
2023/04/18 12:45:40;;;;;;;5.70;5.20;;;12.60;1.00;;;;;;6211321;23;20158;-80
2023/04/18 12:48:05;;;;;;;5.60;5.10;;;12.70;1.00;;;;;;6207221;23;20273;-80